sensor_id;sensor_type;location;lat;lon;timestamp;temperature;humidity
40255;DHT22;25973;52.368;4.940;2022-08-21T00:00:51;19.40;99.90
40255;DHT22;25973;52.368;4.940;2022-08-21T00:03:17;19.40;99.90
40255;DHT22;25973;52.368;4.940;2022-08-21T00:05:45;19.40;99.90
40255;DHT22;25973;52.368;4.940;2022-08-21T00:08:12;19.40;99.90
40255;DHT22;25973;52.368;4.940;2022-08-21T00:10:39;19.40;99.90
40255;DHT22;25973;52.368;4.940;2022-08-21T00:13:05;19.30;99.90
40255;DHT22;25973;52.368;4.940;2022-08-21T00:15:33;19.30;99.90
40255;DHT22;25973;52.368;4.940;2022-08-21T00:17:59;19.30;99.90
40255;DHT22;25973;52.368;4.940;2022-08-21T00:20:25;19.30;99.90
40255;DHT22;25973;52.368;4.940;2022-08-21T00:22:51;19.30;99.90
40255;DHT22;25973;52.368;4.940;2022-08-21T00:25:18;19.20;99.90
40255;DHT22;25973;52.368;4.940;2022-08-21T00:27:44;19.20;99.90
40255;DHT22;25973;52.368;4.940;2022-08-21T00:30:12;19.20;99.90
40255;DHT22;25973;52.368;4.940;2022-08-21T00:32:39;19.10;99.90
40255;DHT22;25973;52.368;4.940;2022-08-21T00:35:13;19.10;99.90
40255;DHT22;25973;52.368;4.940;2022-08-21T00:37:40;19.10;99.90
40255;DHT22;25973;52.368;4.940;2022-08-21T00:40:09;19.10;99.90
40255;DHT22;25973;52.368;4.940;2022-08-21T00:42:36;19.00;99.90
40255;DHT22;25973;52.368;4.940;2022-08-21T00:45:03;19.00;99.90
40255;DHT22;25973;52.368;4.940;2022-08-21T00:47:28;18.90;99.90
40255;DHT22;25973;52.368;4.940;2022-08-21T00:49:54;18.90;99.90
40255;DHT22;25973;52.368;4.940;2022-08-21T00:52:24;18.90;99.90
40255;DHT22;25973;52.368;4.940;2022-08-21T00:54:53;18.90;99.90
40255;DHT22;25973;52.368;4.940;2022-08-21T00:57:24;18.90;99.90
40255;DHT22;25973;52.368;4.940;2022-08-21T00:59:53;18.80;99.90
40255;DHT22;25973;52.368;4.940;2022-08-21T01:02:21;18.80;99.90
40255;DHT22;25973;52.368;4.940;2022-08-21T01:04:48;18.80;99.90
40255;DHT22;25973;52.368;4.940;2022-08-21T01:07:13;18.80;99.90
40255;DHT22;25973;52.368;4.940;2022-08-21T01:09:40;18.70;99.90
40255;DHT22;25973;52.368;4.940;2022-08-21T01:12:06;18.80;99.90
40255;DHT22;25973;52.368;4.940;2022-08-21T01:14:32;18.80;99.90
40255;DHT22;25973;52.368;4.940;2022-08-21T01:16:59;18.80;99.90
40255;DHT22;25973;52.368;4.940;2022-08-21T01:19:26;18.70;99.90
40255;DHT22;25973;52.368;4.940;2022-08-21T01:21:51;18.80;99.90
40255;DHT22;25973;52.368;4.940;2022-08-21T01:24:17;18.70;99.90
40255;DHT22;25973;52.368;4.940;2022-08-21T01:26:43;18.80;99.90
40255;DHT22;25973;52.368;4.940;2022-08-21T01:29:12;18.80;99.90
40255;DHT22;25973;52.368;4.940;2022-08-21T01:31:40;18.80;99.90
40255;DHT22;25973;52.368;4.940;2022-08-21T01:34:07;18.70;99.90
40255;DHT22;25973;52.368;4.940;2022-08-21T01:36:33;18.70;99.90
40255;DHT22;25973;52.368;4.940;2022-08-21T01:38:59;18.70;99.90
40255;DHT22;25973;52.368;4.940;2022-08-21T01:41:25;18.70;99.90
40255;DHT22;25973;52.368;4.940;2022-08-21T01:43:50;18.70;99.90
40255;DHT22;25973;52.368;4.940;2022-08-21T01:46:16;18.70;99.90
40255;DHT22;25973;52.368;4.940;2022-08-21T01:48:42;18.60;99.90
40255;DHT22;25973;52.368;4.940;2022-08-21T01:51:09;18.60;99.90
40255;DHT22;25973;52.368;4.940;2022-08-21T01:53:35;18.60;99.90
40255;DHT22;25973;52.368;4.940;2022-08-21T01:56:04;18.60;99.90
40255;DHT22;25973;52.368;4.940;2022-08-21T01:58:30;18.60;99.90
40255;DHT22;25973;52.368;4.940;2022-08-21T02:00:56;18.60;99.90
40255;DHT22;25973;52.368;4.940;2022-08-21T02:03:22;18.60;99.90
40255;DHT22;25973;52.368;4.940;2022-08-21T02:05:47;18.60;99.90
40255;DHT22;25973;52.368;4.940;2022-08-21T02:08:13;18.60;99.90
40255;DHT22;25973;52.368;4.940;2022-08-21T02:10:38;18.60;99.90
40255;DHT22;25973;52.368;4.940;2022-08-21T02:13:06;18.50;99.90
40255;DHT22;25973;52.368;4.940;2022-08-21T02:15:32;18.50;99.90
40255;DHT22;25973;52.368;4.940;2022-08-21T02:18:00;18.50;99.90
40255;DHT22;25973;52.368;4.940;2022-08-21T02:20:42;18.50;99.90
40255;DHT22;25973;52.368;4.940;2022-08-21T02:23:09;18.50;99.90
40255;DHT22;25973;52.368;4.940;2022-08-21T02:25:36;18.40;99.90
40255;DHT22;25973;52.368;4.940;2022-08-21T02:28:06;18.40;99.90
40255;DHT22;25973;52.368;4.940;2022-08-21T02:30:35;18.40;99.90
40255;DHT22;25973;52.368;4.940;2022-08-21T02:33:03;18.40;99.90
40255;DHT22;25973;52.368;4.940;2022-08-21T02:35:30;18.40;99.90
40255;DHT22;25973;52.368;4.940;2022-08-21T02:38:04;18.40;99.90
40255;DHT22;25973;52.368;4.940;2022-08-21T02:40:32;18.40;99.90
40255;DHT22;25973;52.368;4.940;2022-08-21T02:42:59;18.30;99.90
40255;DHT22;25973;52.368;4.940;2022-08-21T02:45:26;18.30;99.90
40255;DHT22;25973;52.368;4.940;2022-08-21T02:47:57;18.30;99.90
40255;DHT22;25973;52.368;4.940;2022-08-21T02:50:27;18.30;99.90
40255;DHT22;25973;52.368;4.940;2022-08-21T02:52:53;18.30;99.90
40255;DHT22;25973;52.368;4.940;2022-08-21T02:55:30;18.30;99.90
40255;DHT22;25973;52.368;4.940;2022-08-21T02:57:57;18.30;99.90
40255;DHT22;25973;52.368;4.940;2022-08-21T03:00:25;18.20;99.90
40255;DHT22;25973;52.368;4.940;2022-08-21T03:02:51;18.20;99.90
40255;DHT22;25973;52.368;4.940;2022-08-21T03:05:18;18.20;99.90
40255;DHT22;25973;52.368;4.940;2022-08-21T03:07:45;18.20;99.90
40255;DHT22;25973;52.368;4.940;2022-08-21T03:10:12;18.20;99.90
40255;DHT22;25973;52.368;4.940;2022-08-21T03:12:38;18.20;99.90
40255;DHT22;25973;52.368;4.940;2022-08-21T03:15:08;18.10;99.90
40255;DHT22;25973;52.368;4.940;2022-08-21T03:17:34;18.10;99.90
40255;DHT22;25973;52.368;4.940;2022-08-21T03:20:00;18.10;99.90
40255;DHT22;25973;52.368;4.940;2022-08-21T03:22:27;18.10;99.90
40255;DHT22;25973;52.368;4.940;2022-08-21T03:24:52;18.00;99.90
40255;DHT22;25973;52.368;4.940;2022-08-21T03:27:19;18.00;99.90
40255;DHT22;25973;52.368;4.940;2022-08-21T03:29:45;18.00;99.90
40255;DHT22;25973;52.368;4.940;2022-08-21T03:32:10;18.00;99.90
40255;DHT22;25973;52.368;4.940;2022-08-21T03:34:37;18.00;99.90
40255;DHT22;25973;52.368;4.940;2022-08-21T03:37:04;18.00;99.90
40255;DHT22;25973;52.368;4.940;2022-08-21T03:39:29;17.90;99.90
40255;DHT22;25973;52.368;4.940;2022-08-21T03:41:55;17.90;99.90
40255;DHT22;25973;52.368;4.940;2022-08-21T03:44:21;17.90;99.90
40255;DHT22;25973;52.368;4.940;2022-08-21T03:46:46;17.80;99.90
40255;DHT22;25973;52.368;4.940;2022-08-21T03:49:12;17.80;99.90
40255;DHT22;25973;52.368;4.940;2022-08-21T03:51:38;17.80;99.90
40255;DHT22;25973;52.368;4.940;2022-08-21T03:54:04;17.70;99.90
40255;DHT22;25973;52.368;4.940;2022-08-21T03:56:29;17.70;99.90
40255;DHT22;25973;52.368;4.940;2022-08-21T03:58:55;17.70;99.90
40255;DHT22;25973;52.368;4.940;2022-08-21T04:01:21;17.70;99.90
40255;DHT22;25973;52.368;4.940;2022-08-21T04:03:46;17.70;99.90
40255;DHT22;25973;52.368;4.940;2022-08-21T04:06:12;17.70;99.90
40255;DHT22;25973;52.368;4.940;2022-08-21T04:08:38;17.70;99.90
40255;DHT22;25973;52.368;4.940;2022-08-21T04:11:04;17.60;99.90
40255;DHT22;25973;52.368;4.940;2022-08-21T04:13:30;17.60;99.90
40255;DHT22;25973;52.368;4.940;2022-08-21T04:15:56;17.50;99.90
40255;DHT22;25973;52.368;4.940;2022-08-21T04:18:24;17.50;99.90
40255;DHT22;25973;52.368;4.940;2022-08-21T04:20:51;17.50;99.90
40255;DHT22;25973;52.368;4.940;2022-08-21T04:23:19;17.50;99.90
40255;DHT22;25973;52.368;4.940;2022-08-21T04:25:45;17.40;99.90
40255;DHT22;25973;52.368;4.940;2022-08-21T04:28:10;17.40;99.90
40255;DHT22;25973;52.368;4.940;2022-08-21T04:30:36;17.40;99.90
40255;DHT22;25973;52.368;4.940;2022-08-21T04:33:01;17.30;99.90
40255;DHT22;25973;52.368;4.940;2022-08-21T04:35:29;17.30;99.90
40255;DHT22;25973;52.368;4.940;2022-08-21T04:37:55;17.30;99.90
40255;DHT22;25973;52.368;4.940;2022-08-21T04:40:22;17.30;99.90
40255;DHT22;25973;52.368;4.940;2022-08-21T04:42:52;17.30;99.90
40255;DHT22;25973;52.368;4.940;2022-08-21T04:45:24;17.30;99.90
40255;DHT22;25973;52.368;4.940;2022-08-21T04:47:55;17.30;99.90
40255;DHT22;25973;52.368;4.940;2022-08-21T04:50:57;17.30;99.90
40255;DHT22;25973;52.368;4.940;2022-08-21T04:53:20;17.30;99.90
40255;DHT22;25973;52.368;4.940;2022-08-21T04:55:48;17.30;99.90
40255;DHT22;25973;52.368;4.940;2022-08-21T04:58:16;17.30;99.90
40255;DHT22;25973;52.368;4.940;2022-08-21T05:00:43;17.20;99.90
40255;DHT22;25973;52.368;4.940;2022-08-21T05:03:10;17.30;99.90
40255;DHT22;25973;52.368;4.940;2022-08-21T05:05:37;17.30;99.90
40255;DHT22;25973;52.368;4.940;2022-08-21T05:08:03;17.30;99.90
40255;DHT22;25973;52.368;4.940;2022-08-21T05:10:30;17.30;99.90
40255;DHT22;25973;52.368;4.940;2022-08-21T05:12:57;17.30;99.90
40255;DHT22;25973;52.368;4.940;2022-08-21T05:15:22;17.40;99.90
40255;DHT22;25973;52.368;4.940;2022-08-21T05:17:48;17.40;99.90
40255;DHT22;25973;52.368;4.940;2022-08-21T05:20:15;17.40;99.90
40255;DHT22;25973;52.368;4.940;2022-08-21T05:22:41;17.40;99.90
40255;DHT22;25973;52.368;4.940;2022-08-21T05:25:08;17.50;99.90
40255;DHT22;25973;52.368;4.940;2022-08-21T05:27:34;17.50;99.90
40255;DHT22;25973;52.368;4.940;2022-08-21T05:29:59;17.40;99.90
40255;DHT22;25973;52.368;4.940;2022-08-21T05:32:25;17.50;99.90
40255;DHT22;25973;52.368;4.940;2022-08-21T05:34:53;17.50;99.90
40255;DHT22;25973;52.368;4.940;2022-08-21T05:37:18;17.60;99.90
40255;DHT22;25973;52.368;4.940;2022-08-21T05:39:44;17.60;99.90
40255;DHT22;25973;52.368;4.940;2022-08-21T05:42:10;17.60;99.90
40255;DHT22;25973;52.368;4.940;2022-08-21T05:44:35;17.70;99.90
40255;DHT22;25973;52.368;4.940;2022-08-21T05:47:09;17.70;99.90
40255;DHT22;25973;52.368;4.940;2022-08-21T05:49:35;17.80;99.90
40255;DHT22;25973;52.368;4.940;2022-08-21T05:52:03;17.90;99.90
40255;DHT22;25973;52.368;4.940;2022-08-21T05:54:29;17.90;99.90
40255;DHT22;25973;52.368;4.940;2022-08-21T05:56:55;17.90;99.90
40255;DHT22;25973;52.368;4.940;2022-08-21T05:59:20;18.00;99.90
40255;DHT22;25973;52.368;4.940;2022-08-21T06:01:46;18.00;99.90
40255;DHT22;25973;52.368;4.940;2022-08-21T06:04:12;18.10;99.90
40255;DHT22;25973;52.368;4.940;2022-08-21T06:06:38;18.10;99.90
40255;DHT22;25973;52.368;4.940;2022-08-21T06:09:04;18.20;99.90
40255;DHT22;25973;52.368;4.940;2022-08-21T06:11:30;18.20;99.90
40255;DHT22;25973;52.368;4.940;2022-08-21T06:13:56;18.30;99.90
40255;DHT22;25973;52.368;4.940;2022-08-21T06:16:22;18.40;99.90
40255;DHT22;25973;52.368;4.940;2022-08-21T06:18:48;18.50;99.90
40255;DHT22;25973;52.368;4.940;2022-08-21T06:21:14;18.60;99.90
40255;DHT22;25973;52.368;4.940;2022-08-21T06:23:40;18.70;99.90
40255;DHT22;25973;52.368;4.940;2022-08-21T06:26:07;18.90;99.90
40255;DHT22;25973;52.368;4.940;2022-08-21T06:28:33;19.10;99.90
40255;DHT22;25973;52.368;4.940;2022-08-21T06:30:59;19.20;99.90
40255;DHT22;25973;52.368;4.940;2022-08-21T06:33:25;19.40;99.90
40255;DHT22;25973;52.368;4.940;2022-08-21T06:35:51;19.60;99.90
40255;DHT22;25973;52.368;4.940;2022-08-21T06:38:16;19.70;99.90
40255;DHT22;25973;52.368;4.940;2022-08-21T06:40:42;19.90;99.90
40255;DHT22;25973;52.368;4.940;2022-08-21T06:43:10;20.10;99.90
40255;DHT22;25973;52.368;4.940;2022-08-21T06:45:36;20.30;99.90
40255;DHT22;25973;52.368;4.940;2022-08-21T06:48:03;20.60;99.90
40255;DHT22;25973;52.368;4.940;2022-08-21T06:50:29;20.90;99.90
40255;DHT22;25973;52.368;4.940;2022-08-21T06:52:59;21.30;99.90
40255;DHT22;25973;52.368;4.940;2022-08-21T06:55:25;21.70;99.90
40255;DHT22;25973;52.368;4.940;2022-08-21T06:57:50;22.00;99.90
40255;DHT22;25973;52.368;4.940;2022-08-21T07:00:16;22.50;99.90
40255;DHT22;25973;52.368;4.940;2022-08-21T07:02:41;22.90;99.90
40255;DHT22;25973;52.368;4.940;2022-08-21T07:05:07;23.30;99.90
40255;DHT22;25973;52.368;4.940;2022-08-21T07:07:33;23.70;99.90
40255;DHT22;25973;52.368;4.940;2022-08-21T07:09:58;24.20;99.90
40255;DHT22;25973;52.368;4.940;2022-08-21T07:12:24;24.80;99.90
40255;DHT22;25973;52.368;4.940;2022-08-21T07:14:51;25.20;99.90
40255;DHT22;25973;52.368;4.940;2022-08-21T07:17:17;25.60;99.90
40255;DHT22;25973;52.368;4.940;2022-08-21T07:19:42;26.10;99.90
40255;DHT22;25973;52.368;4.940;2022-08-21T07:22:08;26.60;99.90
40255;DHT22;25973;52.368;4.940;2022-08-21T07:24:34;27.10;99.90
40255;DHT22;25973;52.368;4.940;2022-08-21T07:26:59;27.40;99.90
40255;DHT22;25973;52.368;4.940;2022-08-21T07:29:25;27.80;99.90
40255;DHT22;25973;52.368;4.940;2022-08-21T07:31:51;28.20;99.90
40255;DHT22;25973;52.368;4.940;2022-08-21T07:34:17;28.50;99.90
40255;DHT22;25973;52.368;4.940;2022-08-21T07:36:42;28.70;99.50
40255;DHT22;25973;52.368;4.940;2022-08-21T07:39:08;28.90;99.40
40255;DHT22;25973;52.368;4.940;2022-08-21T07:41:34;29.10;99.00
40255;DHT22;25973;52.368;4.940;2022-08-21T07:44:00;29.20;98.50
40255;DHT22;25973;52.368;4.940;2022-08-21T07:46:26;29.30;98.40
40255;DHT22;25973;52.368;4.940;2022-08-21T07:48:52;29.40;98.20
40255;DHT22;25973;52.368;4.940;2022-08-21T07:51:21;29.50;98.00
40255;DHT22;25973;52.368;4.940;2022-08-21T07:53:53;29.60;97.90
40255;DHT22;25973;52.368;4.940;2022-08-21T07:56:19;29.70;97.70
40255;DHT22;25973;52.368;4.940;2022-08-21T07:58:45;29.90;97.50
40255;DHT22;25973;52.368;4.940;2022-08-21T08:01:11;30.10;97.50
40255;DHT22;25973;52.368;4.940;2022-08-21T08:03:37;30.30;97.20
40255;DHT22;25973;52.368;4.940;2022-08-21T08:06:04;30.40;96.90
40255;DHT22;25973;52.368;4.940;2022-08-21T08:08:31;30.60;96.80
40255;DHT22;25973;52.368;4.940;2022-08-21T08:10:58;30.70;96.50
40255;DHT22;25973;52.368;4.940;2022-08-21T08:13:24;30.80;96.60
40255;DHT22;25973;52.368;4.940;2022-08-21T08:15:51;30.80;96.50
40255;DHT22;25973;52.368;4.940;2022-08-21T08:18:17;31.00;96.60
40255;DHT22;25973;52.368;4.940;2022-08-21T08:20:42;31.30;96.30
40255;DHT22;25973;52.368;4.940;2022-08-21T08:23:12;31.40;95.80
40255;DHT22;25973;52.368;4.940;2022-08-21T08:25:38;31.50;95.50
40255;DHT22;25973;52.368;4.940;2022-08-21T08:28:05;31.40;95.30
40255;DHT22;25973;52.368;4.940;2022-08-21T08:30:30;31.30;95.30
40255;DHT22;25973;52.368;4.940;2022-08-21T08:32:56;31.20;95.50
40255;DHT22;25973;52.368;4.940;2022-08-21T08:35:23;31.00;95.60
40255;DHT22;25973;52.368;4.940;2022-08-21T08:37:48;30.90;96.10
40255;DHT22;25973;52.368;4.940;2022-08-21T08:40:30;30.90;96.20
40255;DHT22;25973;52.368;4.940;2022-08-21T08:42:58;31.00;95.80
40255;DHT22;25973;52.368;4.940;2022-08-21T08:45:25;31.00;95.90
40255;DHT22;25973;52.368;4.940;2022-08-21T08:47:57;30.80;95.80
40255;DHT22;25973;52.368;4.940;2022-08-21T08:50:47;30.60;95.70
40255;DHT22;25973;52.368;4.940;2022-08-21T08:53:33;30.10;96.30
40255;DHT22;25973;52.368;4.940;2022-08-21T08:56:04;29.50;96.70
40255;DHT22;25973;52.368;4.940;2022-08-21T08:58:37;29.00;97.30
40255;DHT22;25973;52.368;4.940;2022-08-21T09:01:11;28.50;97.90
40255;DHT22;25973;52.368;4.940;2022-08-21T09:03:39;28.10;98.80
40255;DHT22;25973;52.368;4.940;2022-08-21T09:14:11;26.90;99.90
40255;DHT22;25973;52.368;4.940;2022-08-21T09:16:48;26.70;99.90
40255;DHT22;25973;52.368;4.940;2022-08-21T09:19:47;26.70;99.90
40255;DHT22;25973;52.368;4.940;2022-08-21T09:25:25;26.60;99.90
40255;DHT22;25973;52.368;4.940;2022-08-21T09:27:51;26.50;99.90
40255;DHT22;25973;52.368;4.940;2022-08-21T09:30:19;26.50;99.90
40255;DHT22;25973;52.368;4.940;2022-08-21T09:32:48;26.60;99.90
40255;DHT22;25973;52.368;4.940;2022-08-21T09:35:18;26.70;99.90
40255;DHT22;25973;52.368;4.940;2022-08-21T09:37:59;26.90;99.90
40255;DHT22;25973;52.368;4.940;2022-08-21T09:40:42;27.10;99.90
40255;DHT22;25973;52.368;4.940;2022-08-21T09:45:35;27.50;99.90
40255;DHT22;25973;52.368;4.940;2022-08-21T09:48:20;27.70;99.90
40255;DHT22;25973;52.368;4.940;2022-08-21T09:50:46;27.80;99.10
40255;DHT22;25973;52.368;4.940;2022-08-21T09:55:56;27.90;98.90
40255;DHT22;25973;52.368;4.940;2022-08-21T09:58:42;27.90;98.60
40255;DHT22;25973;52.368;4.940;2022-08-21T10:01:18;28.00;98.20
40255;DHT22;25973;52.368;4.940;2022-08-21T10:03:45;27.90;98.50
40255;DHT22;25973;52.368;4.940;2022-08-21T10:06:22;27.90;98.80
40255;DHT22;25973;52.368;4.940;2022-08-21T10:09:07;27.80;99.00
40255;DHT22;25973;52.368;4.940;2022-08-21T10:11:36;27.80;99.10
40255;DHT22;25973;52.368;4.940;2022-08-21T10:17:07;27.70;99.10
40255;DHT22;25973;52.368;4.940;2022-08-21T10:27:47;26.90;98.40
40255;DHT22;25973;52.368;4.940;2022-08-21T10:30:36;26.70;98.90
40255;DHT22;25973;52.368;4.940;2022-08-21T10:41:31;26.50;97.70
40255;DHT22;25973;52.368;4.940;2022-08-21T10:44:14;26.50;98.10
40255;DHT22;25973;52.368;4.940;2022-08-21T10:49:32;26.90;98.20
40255;DHT22;25973;52.368;4.940;2022-08-21T10:55:20;27.20;97.60
40255;DHT22;25973;52.368;4.940;2022-08-21T10:57:59;27.20;97.70
40255;DHT22;25973;52.368;4.940;2022-08-21T11:00:42;27.00;96.50
40255;DHT22;25973;52.368;4.940;2022-08-21T11:03:24;27.00;96.70
40255;DHT22;25973;52.368;4.940;2022-08-21T11:06:34;27.10;96.50
40255;DHT22;25973;52.368;4.940;2022-08-21T11:08:43;27.20;96.60
40255;DHT22;25973;52.368;4.940;2022-08-21T11:11:47;27.30;96.60
40255;DHT22;25973;52.368;4.940;2022-08-21T11:14:25;27.40;96.90
40255;DHT22;25973;52.368;4.940;2022-08-21T11:17:02;27.40;96.90
40255;DHT22;25973;52.368;4.940;2022-08-21T11:19:42;27.20;96.80
40255;DHT22;25973;52.368;4.940;2022-08-21T11:24:55;27.00;97.00
40255;DHT22;25973;52.368;4.940;2022-08-21T11:27:23;27.00;96.80
40255;DHT22;25973;52.368;4.940;2022-08-21T11:29:55;27.10;96.90
40255;DHT22;25973;52.368;4.940;2022-08-21T11:32:41;27.10;96.90
40255;DHT22;25973;52.368;4.940;2022-08-21T11:41:08;26.90;96.70
40255;DHT22;25973;52.368;4.940;2022-08-21T11:43:43;26.80;96.90
40255;DHT22;25973;52.368;4.940;2022-08-21T11:46:20;26.80;96.90
40255;DHT22;25973;52.368;4.940;2022-08-21T11:52:07;26.50;97.10
40255;DHT22;25973;52.368;4.940;2022-08-21T11:57:22;26.40;97.40
40255;DHT22;25973;52.368;4.940;2022-08-21T12:02:38;26.10;97.20
40255;DHT22;25973;52.368;4.940;2022-08-21T12:05:10;26.00;97.60
40255;DHT22;25973;52.368;4.940;2022-08-21T12:07:38;26.00;97.80
40255;DHT22;25973;52.368;4.940;2022-08-21T12:10:16;26.00;97.70
40255;DHT22;25973;52.368;4.940;2022-08-21T12:12:43;26.00;97.90
40255;DHT22;25973;52.368;4.940;2022-08-21T12:18:00;25.80;98.30
40255;DHT22;25973;52.368;4.940;2022-08-21T12:25:48;25.80;98.50
40255;DHT22;25973;52.368;4.940;2022-08-21T12:28:24;25.80;98.30
40255;DHT22;25973;52.368;4.940;2022-08-21T12:30:51;25.80;98.50
40255;DHT22;25973;52.368;4.940;2022-08-21T12:33:36;25.80;98.80
40255;DHT22;25973;52.368;4.940;2022-08-21T12:36:20;25.70;98.50
40255;DHT22;25973;52.368;4.940;2022-08-21T12:38:59;25.80;98.60
40255;DHT22;25973;52.368;4.940;2022-08-21T12:41:32;25.80;98.30
40255;DHT22;25973;52.368;4.940;2022-08-21T12:44:03;25.80;98.20
40255;DHT22;25973;52.368;4.940;2022-08-21T12:47:13;26.00;98.60
40255;DHT22;25973;52.368;4.940;2022-08-21T12:49:43;26.00;98.70
40255;DHT22;25973;52.368;4.940;2022-08-21T12:52:16;26.10;98.50
40255;DHT22;25973;52.368;4.940;2022-08-21T12:54:45;26.10;98.40
40255;DHT22;25973;52.368;4.940;2022-08-21T12:57:25;26.10;98.60
40255;DHT22;25973;52.368;4.940;2022-08-21T12:59:56;26.00;98.60
40255;DHT22;25973;52.368;4.940;2022-08-21T13:02:33;26.00;98.50
40255;DHT22;25973;52.368;4.940;2022-08-21T13:05:04;25.90;98.40
40255;DHT22;25973;52.368;4.940;2022-08-21T13:07:31;25.80;98.50
40255;DHT22;25973;52.368;4.940;2022-08-21T13:10:03;25.80;98.70
40255;DHT22;25973;52.368;4.940;2022-08-21T13:12:34;25.70;98.40
40255;DHT22;25973;52.368;4.940;2022-08-21T13:15:04;25.60;98.80
40255;DHT22;25973;52.368;4.940;2022-08-21T13:17:34;25.50;98.90
40255;DHT22;25973;52.368;4.940;2022-08-21T13:22:28;25.10;99.70
40255;DHT22;25973;52.368;4.940;2022-08-21T13:24:54;25.00;99.90
40255;DHT22;25973;52.368;4.940;2022-08-21T13:27:28;24.90;99.90
40255;DHT22;25973;52.368;4.940;2022-08-21T13:30:08;24.90;99.90
40255;DHT22;25973;52.368;4.940;2022-08-21T13:32:38;24.90;99.90
40255;DHT22;25973;52.368;4.940;2022-08-21T13:35:24;25.00;99.90
40255;DHT22;25973;52.368;4.940;2022-08-21T13:37:51;25.00;99.90
40255;DHT22;25973;52.368;4.940;2022-08-21T13:40:23;25.00;99.90
40255;DHT22;25973;52.368;4.940;2022-08-21T13:42:50;25.00;99.90
40255;DHT22;25973;52.368;4.940;2022-08-21T13:45:25;25.00;99.90
40255;DHT22;25973;52.368;4.940;2022-08-21T13:47:52;24.90;99.90
40255;DHT22;25973;52.368;4.940;2022-08-21T13:50:20;24.80;99.90
40255;DHT22;25973;52.368;4.940;2022-08-21T13:53:36;24.70;99.90
40255;DHT22;25973;52.368;4.940;2022-08-21T13:55:40;24.70;99.90
40255;DHT22;25973;52.368;4.940;2022-08-21T13:58:07;24.70;99.90
40255;DHT22;25973;52.368;4.940;2022-08-21T14:00:43;24.60;99.90
40255;DHT22;25973;52.368;4.940;2022-08-21T14:03:09;24.70;99.90
40255;DHT22;25973;52.368;4.940;2022-08-21T14:05:44;24.60;99.90
40255;DHT22;25973;52.368;4.940;2022-08-21T14:08:34;24.60;99.90
40255;DHT22;25973;52.368;4.940;2022-08-21T14:11:00;24.60;99.90
40255;DHT22;25973;52.368;4.940;2022-08-21T14:13:41;24.60;99.90
40255;DHT22;25973;52.368;4.940;2022-08-21T14:16:17;24.50;99.90
40255;DHT22;25973;52.368;4.940;2022-08-21T14:19:07;24.50;99.90
40255;DHT22;25973;52.368;4.940;2022-08-21T14:21:40;24.40;99.90
40255;DHT22;25973;52.368;4.940;2022-08-21T14:24:12;24.40;99.90
40255;DHT22;25973;52.368;4.940;2022-08-21T14:27:03;24.40;99.90
40255;DHT22;25973;52.368;4.940;2022-08-21T14:29:32;24.50;99.90
40255;DHT22;25973;52.368;4.940;2022-08-21T14:32:00;24.50;99.90
40255;DHT22;25973;52.368;4.940;2022-08-21T14:34:33;24.50;99.90
40255;DHT22;25973;52.368;4.940;2022-08-21T14:36:58;24.60;99.90
40255;DHT22;25973;52.368;4.940;2022-08-21T14:39:24;24.80;99.80
40255;DHT22;25973;52.368;4.940;2022-08-21T14:41:51;25.10;99.10
40255;DHT22;25973;52.368;4.940;2022-08-21T14:44:18;25.30;98.70
40255;DHT22;25973;52.368;4.940;2022-08-21T14:46:45;25.50;98.80
40255;DHT22;25973;52.368;4.940;2022-08-21T14:49:11;25.70;98.90
40255;DHT22;25973;52.368;4.940;2022-08-21T14:51:37;25.80;99.00
40255;DHT22;25973;52.368;4.940;2022-08-21T14:54:04;25.80;98.30
40255;DHT22;25973;52.368;4.940;2022-08-21T14:56:31;25.80;99.00
40255;DHT22;25973;52.368;4.940;2022-08-21T14:59:02;25.90;98.80
40255;DHT22;25973;52.368;4.940;2022-08-21T15:01:28;26.10;98.60
40255;DHT22;25973;52.368;4.940;2022-08-21T15:03:54;26.20;98.10
40255;DHT22;25973;52.368;4.940;2022-08-21T15:06:19;26.20;98.00
40255;DHT22;25973;52.368;4.940;2022-08-21T15:08:47;26.40;97.70
40255;DHT22;25973;52.368;4.940;2022-08-21T15:11:17;26.50;98.10
40255;DHT22;25973;52.368;4.940;2022-08-21T15:13:43;26.50;98.40
40255;DHT22;25973;52.368;4.940;2022-08-21T15:16:10;26.60;97.70
40255;DHT22;25973;52.368;4.940;2022-08-21T15:18:36;26.80;97.30
40255;DHT22;25973;52.368;4.940;2022-08-21T15:21:02;26.80;97.30
40255;DHT22;25973;52.368;4.940;2022-08-21T15:23:28;26.70;97.30
40255;DHT22;25973;52.368;4.940;2022-08-21T15:25:54;26.70;97.70
40255;DHT22;25973;52.368;4.940;2022-08-21T15:28:23;26.70;97.20
40255;DHT22;25973;52.368;4.940;2022-08-21T15:30:49;26.60;97.30
40255;DHT22;25973;52.368;4.940;2022-08-21T15:33:14;26.50;98.40
40255;DHT22;25973;52.368;4.940;2022-08-21T15:35:40;26.50;97.90
40255;DHT22;25973;52.368;4.940;2022-08-21T15:38:06;26.60;97.60
40255;DHT22;25973;52.368;4.940;2022-08-21T15:40:33;26.70;97.60
40255;DHT22;25973;52.368;4.940;2022-08-21T15:43:00;26.70;97.40
40255;DHT22;25973;52.368;4.940;2022-08-21T15:45:27;26.70;97.60
40255;DHT22;25973;52.368;4.940;2022-08-21T15:47:53;26.80;97.20
40255;DHT22;25973;52.368;4.940;2022-08-21T15:50:20;26.80;96.80
40255;DHT22;25973;52.368;4.940;2022-08-21T15:52:46;26.80;96.90
40255;DHT22;25973;52.368;4.940;2022-08-21T15:55:12;26.80;96.70
40255;DHT22;25973;52.368;4.940;2022-08-21T15:57:43;26.90;96.80
40255;DHT22;25973;52.368;4.940;2022-08-21T16:00:16;27.00;96.30
40255;DHT22;25973;52.368;4.940;2022-08-21T16:02:46;27.00;96.60
40255;DHT22;25973;52.368;4.940;2022-08-21T16:05:13;26.80;96.70
40255;DHT22;25973;52.368;4.940;2022-08-21T16:07:42;26.80;96.50
40255;DHT22;25973;52.368;4.940;2022-08-21T16:10:08;26.90;96.60
40255;DHT22;25973;52.368;4.940;2022-08-21T16:12:37;26.90;96.40
40255;DHT22;25973;52.368;4.940;2022-08-21T16:15:07;27.10;96.20
40255;DHT22;25973;52.368;4.940;2022-08-21T16:17:35;27.20;95.70
40255;DHT22;25973;52.368;4.940;2022-08-21T16:20:04;27.20;95.90
40255;DHT22;25973;52.368;4.940;2022-08-21T16:22:31;27.20;95.90
40255;DHT22;25973;52.368;4.940;2022-08-21T16:24:57;27.30;95.60
40255;DHT22;25973;52.368;4.940;2022-08-21T16:27:23;27.30;95.70
40255;DHT22;25973;52.368;4.940;2022-08-21T16:29:48;27.50;95.60
40255;DHT22;25973;52.368;4.940;2022-08-21T16:32:15;27.50;95.70
40255;DHT22;25973;52.368;4.940;2022-08-21T16:34:45;27.50;95.30
40255;DHT22;25973;52.368;4.940;2022-08-21T16:37:13;27.30;95.10
40255;DHT22;25973;52.368;4.940;2022-08-21T16:39:38;27.10;95.20
40255;DHT22;25973;52.368;4.940;2022-08-21T16:42:04;26.90;95.50
40255;DHT22;25973;52.368;4.940;2022-08-21T16:44:31;26.70;95.50
40255;DHT22;25973;52.368;4.940;2022-08-21T16:47:00;26.50;95.80
40255;DHT22;25973;52.368;4.940;2022-08-21T16:49:26;26.20;96.20
40255;DHT22;25973;52.368;4.940;2022-08-21T16:51:52;26.00;96.30